x

West Gulf - 207 Nm East Of Brownsville, Tx (42002) Wave Buoy

5:50pm - Sun 25th Jan 2015 All times are CST. -6 hours from GMT.

  • Sig Wave height 3.6ft
  • Swell Direction
  • Peak Period 5s
  • Average Period 5s
  • Wind
    20mph, 25mph gusts
  • Sea Temp 72°f
  • Air Temp 67°f
  • Sea Pressure 1018.9mb
  • West Gulf - 207 Nm East Of Brownsville, Tx
  • West Gulf - 207 Nm East Of Brownsville, Tx

More Historic Weather Station data

Upgrade to MSW Pro to gain access to the past 30 days of data for over 8000 Wavebouys and Weather Stations around the globe.

Join Pro

Comparision Forecast

View Surf forecast
   
Sun 01/25 5:50pm 3.5ft 5s 5s 20 25 mph 1018.9mb 72f 67f
4:50pm 3.5ft 6s 4s 18 22 mph 1018.3mb 72f 67f
3:50pm 2.5ft 5s 4s 18 20 mph 1017.9mb 72f 67f
2:50pm 2.5ft 5s 4s 16 20 mph 1018.1mb 72f 67f
1:50pm 2.5ft 5s 4s 16 20 mph 1018.8mb 72f 66f
12:50pm 2.5ft 5s 4s 18 22 mph 1020.2mb 72f 66f
11:50am 2ft 5s 4s 13 18 mph 1020.2mb 72f 65f
10:50am 2ft 5s 4s 11 13 mph 1020.4mb 72f 64f
9:50am 2ft 4s 4s 9 11 mph 1019.7mb 72f 64f
8:50am 2ft 5s 4s 9 11 mph 1019.8mb 72f 64f
7:50am 2ft 5s 4s 9 13 mph 1019.8mb 72f 63f
6:50am 2.5ft 5s 4s 11 13 mph 1019.3mb 72f 62f
5:50am 2.5ft 5s 4s 11 13 mph 1019.4mb 72f 62f
4:50am 2.5ft 5s 4s 13 20 mph 1019.5mb 72f 62f
3:50am 2.5ft 5s 4s 13 18 mph 1020mb 72f 62f
2:50am 2.5ft 5s 4s 11 18 mph 1020.4mb 72f 62f
1:50am 2.5ft 6s 5s 11 16 mph 1020.6mb 72f 62f
12:50am 3ft 6s 5s 11 16 mph 1020.6mb 72f 62f
Sat 01/24 11:50pm 2.5ft 6s 5s 13 18 mph 1021mb 72f 62f
10:50pm 3ft 6s 5s 9 13 mph 1021.6mb 72f 62f
9:50pm 3.5ft 6s 5s 7 13 mph 1021.6mb 72f 62f
8:50pm 4ft 6s 5s 9 13 mph 1021.9mb 72f 62f
7:50pm 4.5ft 6s 5s 9 13 mph 1021.7mb 72f 62f
6:50pm 4.5ft 7s 5s 7 9 mph 1021.6mb 72f 61f
5:50pm 5ft 7s 6s 9 13 mph 1021.5mb 72f 62f
4:50pm 5ft 7s 6s 9 13 mph 1021.9mb 72f 61f
3:50pm 5ft 7s 6s 13 20 mph 1021.8mb 72f 61f
2:50pm 5.5ft 7s 6s 13 18 mph 1022.2mb 72f 61f
1:50pm 6ft 7s 6s 11 16 mph 1022.7mb 72f 61f
12:50pm 6ft 8s 6s 11 13 mph 1023.3mb 72f 61f
11:50am 6.5ft 8s 6s 11 16 mph 1024.5mb 72f 60f
10:50am 7.5ft 8s 6s 11 16 mph 1025.2mb 72f 60f
9:50am 8ft 8s 6s 16 22 mph 1025.3mb 72f 60f
8:50am 9.5ft 8s 7s 18 22 mph 1024.6mb 72f 60f
7:50am 10ft 9s 7s 20 25 mph 1023.9mb 72f 60f
6:50am 9.5ft 8s 7s 20 27 mph 1023.7mb 72f 60f
5:50am 11ft 8s 7s 22 29 mph 1022.8mb 72f 59f
4:50am 11ft 9s 7s 25 31 mph 1022.3mb 73f 59f
3:50am 11.5ft 8s 7s 25 31 mph 1022.1mb 73f 60f
2:50am 11.5ft 8s 7s 27 31 mph 1022mb 73f 60f
1:50am 12ft 8s 7s 27 31 mph 1022mb 73f 59f
12:50am 12.5ft 9s 7s 27 34 mph 1022mb 73f 59f
Fri 01/23 11:50pm 12.5ft 9s 7s 29 36 mph 1021.8mb 73f 59f
10:50pm 11ft 8s 7s 29 34 mph 1021.7mb 73f 60f
9:50pm 11.5ft 8s 7s 29 34 mph 1021.3mb 73f 60f
8:50pm 11ft 8s 7s 27 34 mph 1020.9mb 73f 60f
7:50pm 10ft 8s 6s 29 38 mph 1020.1mb 73f 61f
6:50pm 10ft 8s 6s 29 38 mph 1019.3mb 73f 61f
5:50pm 8ft 7s 6s 27 36 mph 1018.5mb 73f 60f
4:50pm 8.5ft 7s 6s 27 31 mph 1017.8mb 73f 61f
3:50pm 8.5ft 7s 6s 25 34 mph 1017.2mb 73f 61f
2:50pm 7.5ft 8s 6s 22 29 mph 1017.3mb 73f 60f
1:50pm 8ft 7s 6s 22 29 mph 1017mb 73f 60f
12:50pm 7.5ft 8s 6s 25 29 mph 1017.2mb 73f 61f
11:50am 8ft 8s 6s 25 29 mph 1017.8mb 73f 61f
10:50am 9ft 7s 6s 22 29 mph 1018.1mb 73f 62f
9:50am 9ft 8s 6s 27 34 mph 1017.2mb 73f 63f
8:50am 8.5ft 8s 6s 22 27 mph 1016.5mb 73f 63f
7:50am 8.5ft 8s 6s 22 27 mph 1015.7mb 72f 64f
6:50am 7ft 6s 6s 22 27 mph 1014.7mb 72f 64f
5:50am 5ft 6s 5s 22 27 mph 1013.7mb 72f 65f
4:50am 4.5ft 6s 5s 25 27 mph 1012.7mb 72f 66f
3:50am 4ft 6s 5s 18 20 mph 1013.1mb 73f 67f
2:50am 3.5ft 6s 4s 18 20 mph 1012.8mb 73f 68f
1:50am 3.5ft 6s 5s 18 22 mph 1012.6mb 73f 69f
12:50am 4ft 6s 5s 11 13 mph 1012.9mb 73f 69f
Thu 01/22 11:50pm 4ft 6s 5s 18 22 mph 1012.9mb 73f 70f
10:50pm 4.5ft 6s 5s 16 18 mph 1012.7mb 73f 73f
9:50pm 4.5ft 6s 4s 18 22 mph 1012.3mb 73f 73f
8:50pm 4.5ft 6s 4s 22 27 mph 1011.9mb 73f 73f
7:50pm 4.5ft 6s 5s 20 25 mph 1012.2mb 73f 73f
6:50pm 4.5ft 6s 5s 16 18 mph 1012.4mb 73f 73f
5:50pm 4ft 6s 4s 18 20 mph 1011.6mb 73f 73f
4:50pm 4.5ft 6s 4s 20 22 mph 1010.8mb 73f 74f
3:50pm 4.5ft 6s 5s 18 22 mph 1011.2mb 73f 74f
2:50pm 4.5ft 6s 5s 18 20 mph 1011.5mb 73f 74f
1:50pm 4.5ft 6s 5s 18 22 mph 1011.7mb 73f 73f
12:50pm 4.5ft 6s 5s 20 22 mph 1012.6mb 73f 73f
11:50am 4.5ft 6s 4s 22 25 mph 1013.5mb 73f 73f
10:50am 4.5ft 4s 4s 20 25 mph 1014.3mb 73f 73f
9:50am 4.5ft 4s 4s 20 25 mph 1014.9mb 73f 73f
8:50am 4ft 6s 4s 20 25 mph 1015mb 73f 73f
7:50am 4.5ft 6s 4s 20 25 mph 1014.9mb 73f 73f
6:50am 4.5ft 6s 4s 22 27 mph 1014.1mb 73f 73f
5:50am 4ft 6s 4s 22 27 mph 1014mb 73f 73f
4:50am 3.5ft 5s 4s 27 29 mph 1013.2mb 73f 73f
3:50am 3ft 5s 4s 16 18 mph 1015.1mb 73f 73f
2:50am 2.5ft 5s 4s 16 18 mph 1015.4mb 73f 73f
1:50am 3ft 5s 4s 13 18 mph 1015.5mb 73f 72f